»·PEaware :: RA34691 RCTP-ZSPD

RA34691 :: RCTP-ZSPD

FLIGHT INFORMATION

Flight Status: Arrived
Operator: Privately registered:
Russian Federation
More flights under this callsign
Pilot: Sergei F. (8485)
Aircraft: Unknown
(E50P)
More flights by this aircraft type
Origin: RCTP Chiang Kai Shek Intl
Taiwan
Destination: ZSPD Pudong
China
More flights between these airports :: More routes between these airports
Route: RCTP ZSPD
File this flight plan on PilotEdge
Remarks:
Altitude:
(Current/Filed)
15,000ft
Speed:
(Current/Filed)
300kts
Departed: 07-Apr-16 09:40 PM
Arrived: 07-Apr-16 11:13 PM
Distance/Time
Traveled:
365nm/1:33
Distance/Time
To Go:
Arrived

Flight Plot

Page will automatically refresh every two minutes.


Map Options




Map Legend


Flown Route
Filed Route
Departure Airport
Arrival Airport
Navaid (VOR, NDB)
Fix

Horizontal Profiles

Position Reports

Time Latitude Longitude Heading Altitude Ground
Speed
07-Apr-16 21:21 25.077742 121.228425 51 112ft 0kts
07-Apr-16 21:22 25.077742 121.228425 51 112ft 0kts
07-Apr-16 21:23 25.077742 121.228425 51 112ft 0kts
07-Apr-16 21:24 25.077742 121.228425 51 112ft 0kts
07-Apr-16 21:25 25.077742 121.228425 51 112ft 0kts
07-Apr-16 21:26 25.077742 121.228425 51 112ft 0kts
07-Apr-16 21:27 25.078312 121.227845 260 112ft 7kts
07-Apr-16 21:28 25.077667 121.225306 228 112ft 10kts
07-Apr-16 21:29 25.075263 121.222240 228 112ft 15kts
07-Apr-16 21:30 25.072708 121.218989 227 112ft 2kts
07-Apr-16 21:31 25.073519 121.217721 318 112ft 8kts
07-Apr-16 21:32 25.079205 121.224037 49 112ft 100kts
07-Apr-16 21:33 25.111733 121.247453 357 1263ft 167kts
07-Apr-16 21:34 25.156341 121.246343 359 2659ft 155kts
07-Apr-16 21:35 25.200753 121.248689 1 3814ft 166kts
07-Apr-16 21:36 25.247547 121.254218 1 5007ft 170kts
07-Apr-16 21:37 25.296381 121.256725 1 6375ft 180kts
07-Apr-16 21:38 25.347159 121.259752 354 7742ft 186kts
07-Apr-16 21:39 25.397757 121.245472 324 8827ft 199kts
07-Apr-16 21:40 25.446118 121.212875 321 10144ft 205kts
07-Apr-16 21:41 25.485071 121.166045 303 11124ft 217kts
07-Apr-16 21:42 25.518150 121.125445 304 12274ft 213kts
07-Apr-16 21:43 25.562740 121.065484 304 13980ft 218kts
07-Apr-16 21:44 25.602242 121.013909 306 15445ft 223kts
07-Apr-16 21:45 25.637117 120.971272 295 16543ft 221kts
07-Apr-16 21:46 25.669814 120.913118 292 17726ft 223kts
07-Apr-16 21:47 25.700932 120.853447 295 18786ft 228kts
07-Apr-16 21:48 25.736079 120.792072 296 19719ft 234kts
07-Apr-16 21:49 25.778704 120.725163 301 19278ft 289kts
07-Apr-16 21:50 25.823626 120.650689 294 19872ft 288kts
07-Apr-16 21:51 25.862363 120.569620 291 19870ft 305kts
07-Apr-16 21:52 25.896215 120.481070 284 20122ft 305kts
07-Apr-16 21:53 25.915522 120.387639 284 20003ft 317kts
07-Apr-16 21:54 25.963471 120.303599 310 20082ft 332kts
07-Apr-16 21:55 26.032231 120.234361 310 20316ft 329kts
07-Apr-16 21:56 26.102886 120.167394 320 20362ft 336kts
07-Apr-16 21:57 26.182573 120.109879 319 20411ft 338kts
07-Apr-16 21:58 26.262430 120.054439 332 20409ft 350kts
07-Apr-16 21:59 26.360929 120.045203 357 20502ft 364kts
07-Apr-16 22:00 26.462934 120.052211 357 20352ft 368kts
07-Apr-16 22:01 26.565144 120.060950 4 20355ft 370kts
07-Apr-16 22:02 26.666551 120.084679 8 20355ft 372kts
07-Apr-16 22:03 26.766353 120.113877 18 20368ft 374kts
07-Apr-16 22:04 26.856922 120.173823 32 20348ft 382kts
07-Apr-16 22:05 26.940949 120.246810 34 20328ft 383kts
07-Apr-16 22:06 27.024523 120.320514 34 20771ft 369kts
07-Apr-16 22:07 27.101891 120.389740 34 21967ft 341kts
07-Apr-16 22:08 27.173824 120.453402 29 23162ft 317kts
07-Apr-16 22:09 27.244448 120.507636 28 24360ft 294kts
07-Apr-16 22:10 27.310681 120.558408 28 25029ft 293kts
07-Apr-16 22:11 27.381248 120.611874 28 25036ft 316kts
07-Apr-16 22:12 27.457001 120.668507 28 25036ft 333kts
07-Apr-16 22:13 27.535541 120.726699 28 25036ft 345kts
07-Apr-16 22:14 27.617539 120.786948 28 25038ft 356kts
07-Apr-16 22:15 27.702386 120.848688 28 25039ft 369kts
07-Apr-16 22:16 27.790458 120.912371 28 25040ft 378kts
07-Apr-16 22:17 27.879401 120.976345 28 25041ft 383kts
07-Apr-16 22:18 27.970049 121.041385 28 25042ft 386kts
07-Apr-16 22:19 28.061486 121.106800 28 25044ft 389kts
07-Apr-16 22:20 28.153558 121.172469 27 25046ft 391kts
07-Apr-16 22:21 28.245233 121.239939 32 25045ft 394kts
07-Apr-16 22:22 28.331849 121.316607 34 25045ft 396kts
07-Apr-16 22:23 28.418253 121.394835 34 25046ft 397kts
07-Apr-16 22:24 28.504775 121.473210 34 25047ft 397kts
07-Apr-16 22:25 28.591111 121.551239 33 25049ft 396kts
07-Apr-16 22:26 28.685800 121.613634 21 25051ft 391kts
07-Apr-16 22:27 28.784158 121.667706 20 24875ft 396kts
07-Apr-16 22:28 28.885204 121.722627 20 23743ft 403kts
07-Apr-16 22:29 28.987715 121.773836 17 22589ft 402kts
07-Apr-16 22:30 29.091172 121.822867 17 21430ft 401kts
07-Apr-16 22:31 29.194001 121.871571 15 20266ft 392kts
07-Apr-16 22:32 29.296888 121.905782 7 19110ft 381kts
07-Apr-16 22:33 29.394481 121.955023 25 17952ft 382kts
07-Apr-16 22:34 29.484680 122.014122 20 16794ft 365kts
07-Apr-16 22:35 29.579327 122.049583 8 15635ft 352kts
07-Apr-16 22:36 29.673650 122.075139 8 15062ft 343kts
07-Apr-16 22:37 29.765983 122.090304 1 15057ft 330kts
07-Apr-16 22:38 29.856775 122.100253 0 15057ft 326kts
07-Apr-16 22:39 29.946900 122.108493 358 15058ft 322kts
07-Apr-16 22:40 30.035923 122.115219 0 15057ft 313kts
07-Apr-16 22:41 30.118294 122.148171 22 14651ft 324kts
07-Apr-16 22:42 30.199100 122.197654 22 13559ft 325kts
07-Apr-16 22:43 30.279839 122.240382 3 12468ft 311kts
07-Apr-16 22:44 30.364297 122.237307 338 11600ft 290kts
07-Apr-16 22:45 30.431906 122.196674 326 11552ft 262kts
07-Apr-16 22:46 30.478958 122.136560 307 11562ft 255kts
07-Apr-16 22:47 30.539120 122.088358 327 10840ft 266kts
07-Apr-16 22:48 30.603080 122.043941 327 9835ft 268kts
07-Apr-16 22:49 30.672411 122.013621 344 8837ft 267kts
07-Apr-16 22:50 30.732099 121.994474 344 8090ft 261kts
07-Apr-16 22:51 30.809553 121.962481 338 7033ft 247kts
07-Apr-16 22:52 30.871656 121.932267 338 6130ft 236kts
07-Apr-16 22:53 30.921815 121.907698 338 5375ft 232kts
07-Apr-16 22:54 30.980426 121.879204 338 5059ft 224kts
07-Apr-16 22:55 31.016400 121.829596 259 4602ft 226kts
07-Apr-16 22:56 30.973068 121.782822 194 4033ft 214kts
07-Apr-16 22:57 30.917278 121.785294 155 3717ft 196kts
07-Apr-16 22:58 30.900320 121.837224 64 3089ft 192kts
07-Apr-16 22:59 30.942525 121.866025 4 2509ft 166kts
07-Apr-16 23:00 30.987523 121.864167 356 2320ft 146kts
07-Apr-16 23:01 31.025833 121.857146 344 1576ft 135kts
07-Apr-16 23:02 31.059600 121.844556 346 1108ft 117kts
07-Apr-16 23:03 31.089699 121.833208 346 625ft 109kts
07-Apr-16 23:04 31.118286 121.822382 344 111ft 104kts
07-Apr-16 23:05 31.138068 121.814889 343 15ft 11kts
07-Apr-16 23:06 31.140236 121.811959 338 15ft 8kts
07-Apr-16 23:07 31.141184 121.811595 341 15ft 8kts
07-Apr-16 23:08 31.142221 121.810045 251 15ft 6kts
07-Apr-16 23:09 31.141527 121.807542 252 15ft 9kts
07-Apr-16 23:10 31.140150 121.803010 251 15ft 19kts
07-Apr-16 23:11 31.139258 121.799073 338 15ft 5kts
07-Apr-16 23:12 31.141878 121.798135 349 15ft 13kts
07-Apr-16 23:13 31.143037 121.799726 64 15ft 0kts
07-Apr-16 23:14 31.143037 121.799726 64 15ft 0kts

Navigation Log

Ident Type
Flight plan parsing failed, navigation log unavailable